sensor_id;sensor_type;location;lat;lon;timestamp;temperature;humidity
21387;DHT22;10854;45.922;6.716;2023-12-20T00:01:26;2.60;99.90
21387;DHT22;10854;45.922;6.716;2023-12-20T00:03:55;2.60;99.90
21387;DHT22;10854;45.922;6.716;2023-12-20T00:06:23;2.70;99.90
21387;DHT22;10854;45.922;6.716;2023-12-20T00:08:52;2.80;99.90
21387;DHT22;10854;45.922;6.716;2023-12-20T00:11:21;2.80;99.90
21387;DHT22;10854;45.922;6.716;2023-12-20T00:13:50;2.80;99.90
21387;DHT22;10854;45.922;6.716;2023-12-20T00:16:19;2.80;99.90
21387;DHT22;10854;45.922;6.716;2023-12-20T00:18:47;2.90;99.90
21387;DHT22;10854;45.922;6.716;2023-12-20T00:21:16;3.00;99.90
21387;DHT22;10854;45.922;6.716;2023-12-20T00:23:44;3.20;99.90
21387;DHT22;10854;45.922;6.716;2023-12-20T00:26:13;3.20;99.90
21387;DHT22;10854;45.922;6.716;2023-12-20T00:28:41;3.20;99.90
21387;DHT22;10854;45.922;6.716;2023-12-20T00:31:10;3.20;99.90
21387;DHT22;10854;45.922;6.716;2023-12-20T00:33:39;3.20;99.90
21387;DHT22;10854;45.922;6.716;2023-12-20T00:36:11;3.20;99.90
21387;DHT22;10854;45.922;6.716;2023-12-20T00:38:40;3.20;99.90
21387;DHT22;10854;45.922;6.716;2023-12-20T00:41:08;3.10;99.90
21387;DHT22;10854;45.922;6.716;2023-12-20T00:43:37;3.10;99.90
21387;DHT22;10854;45.922;6.716;2023-12-20T00:46:05;3.10;99.90
21387;DHT22;10854;45.922;6.716;2023-12-20T00:48:34;3.10;99.90
21387;DHT22;10854;45.922;6.716;2023-12-20T00:51:02;3.10;99.90
21387;DHT22;10854;45.922;6.716;2023-12-20T00:53:32;3.10;99.90
21387;DHT22;10854;45.922;6.716;2023-12-20T00:56:01;3.10;99.90
21387;DHT22;10854;45.922;6.716;2023-12-20T00:58:29;3.10;99.90
21387;DHT22;10854;45.922;6.716;2023-12-20T01:00:58;3.10;99.90
21387;DHT22;10854;45.922;6.716;2023-12-20T01:03:26;3.10;99.90
21387;DHT22;10854;45.922;6.716;2023-12-20T01:05:55;3.10;99.90
21387;DHT22;10854;45.922;6.716;2023-12-20T01:08:23;3.10;99.90
21387;DHT22;10854;45.922;6.716;2023-12-20T01:10:52;3.10;99.90
21387;DHT22;10854;45.922;6.716;2023-12-20T01:13:20;3.10;99.90
21387;DHT22;10854;45.922;6.716;2023-12-20T01:15:49;3.10;99.90
21387;DHT22;10854;45.922;6.716;2023-12-20T01:18:20;3.10;99.90
21387;DHT22;10854;45.922;6.716;2023-12-20T01:20:49;3.10;99.90
21387;DHT22;10854;45.922;6.716;2023-12-20T01:23:18;3.20;99.90
21387;DHT22;10854;45.922;6.716;2023-12-20T01:25:47;3.20;99.90
21387;DHT22;10854;45.922;6.716;2023-12-20T01:28:16;3.20;99.90
21387;DHT22;10854;45.922;6.716;2023-12-20T01:30:46;3.20;99.90
21387;DHT22;10854;45.922;6.716;2023-12-20T01:33:15;3.20;99.90
21387;DHT22;10854;45.922;6.716;2023-12-20T01:35:43;3.30;99.90
21387;DHT22;10854;45.922;6.716;2023-12-20T01:38:11;3.30;99.90
21387;DHT22;10854;45.922;6.716;2023-12-20T01:40:40;3.40;99.90
21387;DHT22;10854;45.922;6.716;2023-12-20T01:43:09;3.50;99.90
21387;DHT22;10854;45.922;6.716;2023-12-20T01:45:40;3.70;99.90
21387;DHT22;10854;45.922;6.716;2023-12-20T01:48:09;3.80;99.90
21387;DHT22;10854;45.922;6.716;2023-12-20T01:50:38;3.80;99.90
21387;DHT22;10854;45.922;6.716;2023-12-20T01:53:09;3.80;99.90
21387;DHT22;10854;45.922;6.716;2023-12-20T01:55:41;3.80;99.90
21387;DHT22;10854;45.922;6.716;2023-12-20T01:58:11;3.80;99.90
21387;DHT22;10854;45.922;6.716;2023-12-20T02:00:40;3.80;99.90
21387;DHT22;10854;45.922;6.716;2023-12-20T02:03:09;3.80;99.90
21387;DHT22;10854;45.922;6.716;2023-12-20T02:05:38;3.80;99.90
21387;DHT22;10854;45.922;6.716;2023-12-20T02:08:07;3.80;99.90
21387;DHT22;10854;45.922;6.716;2023-12-20T02:10:35;3.80;99.90
21387;DHT22;10854;45.922;6.716;2023-12-20T02:13:04;3.80;99.90
21387;DHT22;10854;45.922;6.716;2023-12-20T02:15:33;3.70;99.90
21387;DHT22;10854;45.922;6.716;2023-12-20T02:18:01;3.70;99.90
21387;DHT22;10854;45.922;6.716;2023-12-20T02:20:30;3.70;99.90
21387;DHT22;10854;45.922;6.716;2023-12-20T02:22:59;3.60;99.90
21387;DHT22;10854;45.922;6.716;2023-12-20T02:25:27;3.60;99.90
21387;DHT22;10854;45.922;6.716;2023-12-20T02:27:55;3.70;99.90
21387;DHT22;10854;45.922;6.716;2023-12-20T02:30:24;3.60;99.90
21387;DHT22;10854;45.922;6.716;2023-12-20T02:32:52;3.60;99.90
21387;DHT22;10854;45.922;6.716;2023-12-20T02:35:21;3.50;99.90
21387;DHT22;10854;45.922;6.716;2023-12-20T02:37:50;3.50;99.90
21387;DHT22;10854;45.922;6.716;2023-12-20T02:40:18;3.40;99.90
21387;DHT22;10854;45.922;6.716;2023-12-20T02:42:47;3.40;99.90
21387;DHT22;10854;45.922;6.716;2023-12-20T02:45:15;3.30;99.90
21387;DHT22;10854;45.922;6.716;2023-12-20T02:47:44;3.30;99.90
21387;DHT22;10854;45.922;6.716;2023-12-20T02:50:12;3.30;99.90
21387;DHT22;10854;45.922;6.716;2023-12-20T02:52:42;3.20;99.90
21387;DHT22;10854;45.922;6.716;2023-12-20T02:55:11;3.20;99.90
21387;DHT22;10854;45.922;6.716;2023-12-20T02:57:39;3.10;99.90
21387;DHT22;10854;45.922;6.716;2023-12-20T03:00:11;3.10;99.90
21387;DHT22;10854;45.922;6.716;2023-12-20T03:02:40;3.10;99.90
21387;DHT22;10854;45.922;6.716;2023-12-20T03:05:08;3.10;99.90
21387;DHT22;10854;45.922;6.716;2023-12-20T03:07:37;3.10;99.90
21387;DHT22;10854;45.922;6.716;2023-12-20T03:10:06;3.10;99.90
21387;DHT22;10854;45.922;6.716;2023-12-20T03:12:37;3.10;99.90
21387;DHT22;10854;45.922;6.716;2023-12-20T03:15:06;3.10;99.90
21387;DHT22;10854;45.922;6.716;2023-12-20T03:17:34;3.00;99.90
21387;DHT22;10854;45.922;6.716;2023-12-20T03:20:03;3.10;99.90
21387;DHT22;10854;45.922;6.716;2023-12-20T03:22:31;3.00;99.90
21387;DHT22;10854;45.922;6.716;2023-12-20T03:25:00;3.10;99.90
21387;DHT22;10854;45.922;6.716;2023-12-20T03:27:28;3.10;99.90
21387;DHT22;10854;45.922;6.716;2023-12-20T03:29:57;3.00;99.90
21387;DHT22;10854;45.922;6.716;2023-12-20T03:32:25;3.00;99.90
21387;DHT22;10854;45.922;6.716;2023-12-20T03:34:53;3.00;99.90
21387;DHT22;10854;45.922;6.716;2023-12-20T03:37:22;3.00;99.90
21387;DHT22;10854;45.922;6.716;2023-12-20T03:39:51;3.00;99.90
21387;DHT22;10854;45.922;6.716;2023-12-20T03:42:19;3.00;99.90
21387;DHT22;10854;45.922;6.716;2023-12-20T03:44:48;3.00;99.90
21387;DHT22;10854;45.922;6.716;2023-12-20T03:47:16;3.00;99.90
21387;DHT22;10854;45.922;6.716;2023-12-20T03:49:44;3.00;99.90
21387;DHT22;10854;45.922;6.716;2023-12-20T03:52:13;3.10;99.90
21387;DHT22;10854;45.922;6.716;2023-12-20T03:54:41;3.10;99.90
21387;DHT22;10854;45.922;6.716;2023-12-20T03:57:10;3.10;99.90
21387;DHT22;10854;45.922;6.716;2023-12-20T03:59:38;3.10;99.90
21387;DHT22;10854;45.922;6.716;2023-12-20T04:02:07;3.10;99.90
21387;DHT22;10854;45.922;6.716;2023-12-20T04:04:35;3.10;99.90
21387;DHT22;10854;45.922;6.716;2023-12-20T04:07:04;3.10;99.90
21387;DHT22;10854;45.922;6.716;2023-12-20T04:09:32;3.20;99.90
21387;DHT22;10854;45.922;6.716;2023-12-20T04:12:00;3.20;99.90
21387;DHT22;10854;45.922;6.716;2023-12-20T04:14:29;3.30;99.90
21387;DHT22;10854;45.922;6.716;2023-12-20T04:16:57;3.30;99.90
21387;DHT22;10854;45.922;6.716;2023-12-20T04:19:26;3.30;99.90
21387;DHT22;10854;45.922;6.716;2023-12-20T04:21:54;3.30;99.90
21387;DHT22;10854;45.922;6.716;2023-12-20T04:24:22;3.30;99.90
21387;DHT22;10854;45.922;6.716;2023-12-20T04:26:51;3.30;99.90
21387;DHT22;10854;45.922;6.716;2023-12-20T04:29:19;3.30;99.90
21387;DHT22;10854;45.922;6.716;2023-12-20T04:31:48;3.30;99.90
21387;DHT22;10854;45.922;6.716;2023-12-20T04:34:18;3.30;99.90
21387;DHT22;10854;45.922;6.716;2023-12-20T04:36:46;3.30;99.90
21387;DHT22;10854;45.922;6.716;2023-12-20T04:39:14;3.30;99.90
21387;DHT22;10854;45.922;6.716;2023-12-20T04:41:43;3.30;99.90
21387;DHT22;10854;45.922;6.716;2023-12-20T04:44:11;3.30;99.90
21387;DHT22;10854;45.922;6.716;2023-12-20T04:46:40;3.30;99.90
21387;DHT22;10854;45.922;6.716;2023-12-20T04:49:09;3.30;99.90
21387;DHT22;10854;45.922;6.716;2023-12-20T04:51:37;3.30;99.90
21387;DHT22;10854;45.922;6.716;2023-12-20T04:54:06;3.30;99.90
21387;DHT22;10854;45.922;6.716;2023-12-20T04:56:34;3.30;99.90
21387;DHT22;10854;45.922;6.716;2023-12-20T04:59:03;3.30;99.90
21387;DHT22;10854;45.922;6.716;2023-12-20T05:01:31;3.30;99.90
21387;DHT22;10854;45.922;6.716;2023-12-20T05:03:59;3.30;99.90
21387;DHT22;10854;45.922;6.716;2023-12-20T05:06:28;3.40;99.90
21387;DHT22;10854;45.922;6.716;2023-12-20T05:08:56;3.40;99.90
21387;DHT22;10854;45.922;6.716;2023-12-20T05:11:24;3.40;99.90
21387;DHT22;10854;45.922;6.716;2023-12-20T05:13:53;3.40;99.90
21387;DHT22;10854;45.922;6.716;2023-12-20T05:16:21;3.40;99.90
21387;DHT22;10854;45.922;6.716;2023-12-20T05:18:50;3.40;99.90
21387;DHT22;10854;45.922;6.716;2023-12-20T05:21:20;3.50;99.90
21387;DHT22;10854;45.922;6.716;2023-12-20T05:23:48;3.50;99.90
21387;DHT22;10854;45.922;6.716;2023-12-20T05:26:17;3.50;99.90
21387;DHT22;10854;45.922;6.716;2023-12-20T05:28:45;3.50;99.90
21387;DHT22;10854;45.922;6.716;2023-12-20T05:31:14;3.50;99.90
21387;DHT22;10854;45.922;6.716;2023-12-20T05:33:43;3.50;99.90
21387;DHT22;10854;45.922;6.716;2023-12-20T05:36:11;3.50;99.90
21387;DHT22;10854;45.922;6.716;2023-12-20T05:38:41;3.50;99.90
21387;DHT22;10854;45.922;6.716;2023-12-20T05:41:10;3.50;99.90
21387;DHT22;10854;45.922;6.716;2023-12-20T05:43:38;3.50;99.90
21387;DHT22;10854;45.922;6.716;2023-12-20T05:46:06;3.60;99.90
21387;DHT22;10854;45.922;6.716;2023-12-20T05:48:35;3.50;99.90
21387;DHT22;10854;45.922;6.716;2023-12-20T05:51:04;3.50;99.90
21387;DHT22;10854;45.922;6.716;2023-12-20T05:53:32;3.40;99.90
21387;DHT22;10854;45.922;6.716;2023-12-20T05:56:00;3.40;99.90
21387;DHT22;10854;45.922;6.716;2023-12-20T05:58:29;3.40;99.90
21387;DHT22;10854;45.922;6.716;2023-12-20T06:00:57;3.40;99.90
21387;DHT22;10854;45.922;6.716;2023-12-20T06:03:26;3.40;99.90
21387;DHT22;10854;45.922;6.716;2023-12-20T06:05:54;3.40;99.90
21387;DHT22;10854;45.922;6.716;2023-12-20T06:08:26;3.40;99.90
21387;DHT22;10854;45.922;6.716;2023-12-20T06:10:55;3.40;99.90
21387;DHT22;10854;45.922;6.716;2023-12-20T06:13:23;3.40;99.90
21387;DHT22;10854;45.922;6.716;2023-12-20T06:15:51;3.40;99.90
21387;DHT22;10854;45.922;6.716;2023-12-20T06:18:20;3.40;99.90
21387;DHT22;10854;45.922;6.716;2023-12-20T06:20:48;3.40;99.90
21387;DHT22;10854;45.922;6.716;2023-12-20T06:23:17;3.40;99.90
21387;DHT22;10854;45.922;6.716;2023-12-20T06:25:46;3.40;99.90
21387;DHT22;10854;45.922;6.716;2023-12-20T06:28:14;3.50;99.90
21387;DHT22;10854;45.922;6.716;2023-12-20T06:30:42;3.50;99.90
21387;DHT22;10854;45.922;6.716;2023-12-20T06:33:11;3.50;99.90
21387;DHT22;10854;45.922;6.716;2023-12-20T06:35:40;3.50;99.90
21387;DHT22;10854;45.922;6.716;2023-12-20T06:38:08;3.50;99.90
21387;DHT22;10854;45.922;6.716;2023-12-20T06:40:37;3.60;99.90
21387;DHT22;10854;45.922;6.716;2023-12-20T06:43:05;3.60;99.90
21387;DHT22;10854;45.922;6.716;2023-12-20T06:45:35;3.50;99.90
21387;DHT22;10854;45.922;6.716;2023-12-20T06:48:04;3.60;99.90
21387;DHT22;10854;45.922;6.716;2023-12-20T06:50:33;3.60;99.90
21387;DHT22;10854;45.922;6.716;2023-12-20T06:53:01;3.50;99.90
21387;DHT22;10854;45.922;6.716;2023-12-20T06:55:38;3.50;99.90
21387;DHT22;10854;45.922;6.716;2023-12-20T06:58:06;3.60;99.90
21387;DHT22;10854;45.922;6.716;2023-12-20T07:00:34;3.50;99.90
21387;DHT22;10854;45.922;6.716;2023-12-20T07:03:03;3.60;99.90
21387;DHT22;10854;45.922;6.716;2023-12-20T07:05:31;3.60;99.90
21387;DHT22;10854;45.922;6.716;2023-12-20T07:08:01;3.60;99.90
21387;DHT22;10854;45.922;6.716;2023-12-20T07:10:29;3.60;99.90
21387;DHT22;10854;45.922;6.716;2023-12-20T07:12:58;3.60;99.90
21387;DHT22;10854;45.922;6.716;2023-12-20T07:15:26;3.60;99.90
21387;DHT22;10854;45.922;6.716;2023-12-20T07:17:56;3.70;99.90
21387;DHT22;10854;45.922;6.716;2023-12-20T07:20:24;3.60;99.90
21387;DHT22;10854;45.922;6.716;2023-12-20T07:22:52;3.50;99.90
21387;DHT22;10854;45.922;6.716;2023-12-20T07:25:21;3.50;99.90
21387;DHT22;10854;45.922;6.716;2023-12-20T07:27:50;3.50;99.90
21387;DHT22;10854;45.922;6.716;2023-12-20T07:30:18;3.40;99.90
21387;DHT22;10854;45.922;6.716;2023-12-20T07:32:47;3.40;99.90
21387;DHT22;10854;45.922;6.716;2023-12-20T07:35:18;3.40;99.90
21387;DHT22;10854;45.922;6.716;2023-12-20T07:37:46;3.40;99.90
21387;DHT22;10854;45.922;6.716;2023-12-20T07:40:15;3.40;99.90
21387;DHT22;10854;45.922;6.716;2023-12-20T07:42:45;3.40;99.90
21387;DHT22;10854;45.922;6.716;2023-12-20T07:45:13;3.40;99.90
21387;DHT22;10854;45.922;6.716;2023-12-20T07:47:42;3.40;99.90
21387;DHT22;10854;45.922;6.716;2023-12-20T07:50:10;3.40;99.90
21387;DHT22;10854;45.922;6.716;2023-12-20T07:52:39;3.50;99.90
21387;DHT22;10854;45.922;6.716;2023-12-20T07:55:08;3.40;99.90
21387;DHT22;10854;45.922;6.716;2023-12-20T07:57:36;3.50;99.90
21387;DHT22;10854;45.922;6.716;2023-12-20T08:00:05;3.50;99.90
21387;DHT22;10854;45.922;6.716;2023-12-20T08:02:34;3.50;99.90
21387;DHT22;10854;45.922;6.716;2023-12-20T08:05:02;3.50;99.90
21387;DHT22;10854;45.922;6.716;2023-12-20T08:07:31;3.50;99.90
21387;DHT22;10854;45.922;6.716;2023-12-20T08:09:59;3.60;99.90
21387;DHT22;10854;45.922;6.716;2023-12-20T08:12:28;3.60;99.90
21387;DHT22;10854;45.922;6.716;2023-12-20T08:14:56;3.60;99.90
21387;DHT22;10854;45.922;6.716;2023-12-20T08:17:25;3.60;99.90
21387;DHT22;10854;45.922;6.716;2023-12-20T08:19:53;3.70;99.90
21387;DHT22;10854;45.922;6.716;2023-12-20T08:22:22;3.70;99.90
21387;DHT22;10854;45.922;6.716;2023-12-20T08:24:50;3.70;99.90
21387;DHT22;10854;45.922;6.716;2023-12-20T08:27:19;3.80;99.90
21387;DHT22;10854;45.922;6.716;2023-12-20T08:29:47;3.80;99.90
21387;DHT22;10854;45.922;6.716;2023-12-20T08:32:17;3.80;99.90
21387;DHT22;10854;45.922;6.716;2023-12-20T08:34:46;3.90;99.90
21387;DHT22;10854;45.922;6.716;2023-12-20T08:37:14;3.90;99.90
21387;DHT22;10854;45.922;6.716;2023-12-20T08:39:43;3.90;99.90
21387;DHT22;10854;45.922;6.716;2023-12-20T08:42:12;3.90;99.90
21387;DHT22;10854;45.922;6.716;2023-12-20T08:44:40;3.90;99.90
21387;DHT22;10854;45.922;6.716;2023-12-20T08:47:09;4.00;99.90
21387;DHT22;10854;45.922;6.716;2023-12-20T08:49:41;4.00;99.90
21387;DHT22;10854;45.922;6.716;2023-12-20T08:52:09;4.10;99.90
21387;DHT22;10854;45.922;6.716;2023-12-20T08:54:37;4.20;99.90
21387;DHT22;10854;45.922;6.716;2023-12-20T08:57:06;4.20;99.90
21387;DHT22;10854;45.922;6.716;2023-12-20T08:59:34;4.30;99.90
21387;DHT22;10854;45.922;6.716;2023-12-20T09:02:03;4.30;99.90
21387;DHT22;10854;45.922;6.716;2023-12-20T09:04:31;4.40;99.90
21387;DHT22;10854;45.922;6.716;2023-12-20T09:07:00;4.40;99.90
21387;DHT22;10854;45.922;6.716;2023-12-20T09:09:29;4.40;99.90
21387;DHT22;10854;45.922;6.716;2023-12-20T09:12:00;4.50;99.90
21387;DHT22;10854;45.922;6.716;2023-12-20T09:14:28;4.60;99.90
21387;DHT22;10854;45.922;6.716;2023-12-20T09:16:56;4.60;99.90
21387;DHT22;10854;45.922;6.716;2023-12-20T09:19:25;4.70;99.90
21387;DHT22;10854;45.922;6.716;2023-12-20T09:21:53;4.80;99.90
21387;DHT22;10854;45.922;6.716;2023-12-20T09:24:23;4.90;99.90
21387;DHT22;10854;45.922;6.716;2023-12-20T09:26:51;4.90;99.90
21387;DHT22;10854;45.922;6.716;2023-12-20T09:29:20;4.90;99.90
21387;DHT22;10854;45.922;6.716;2023-12-20T09:31:49;4.90;99.90
21387;DHT22;10854;45.922;6.716;2023-12-20T09:34:18;5.10;99.90
21387;DHT22;10854;45.922;6.716;2023-12-20T09:36:46;5.10;99.90
21387;DHT22;10854;45.922;6.716;2023-12-20T09:39:16;5.20;99.90
21387;DHT22;10854;45.922;6.716;2023-12-20T09:42:05;5.30;99.90
21387;DHT22;10854;45.922;6.716;2023-12-20T09:44:34;5.40;99.90
21387;DHT22;10854;45.922;6.716;2023-12-20T09:47:04;5.60;99.90
21387;DHT22;10854;45.922;6.716;2023-12-20T09:49:33;5.70;99.90
21387;DHT22;10854;45.922;6.716;2023-12-20T09:52:03;5.80;99.90
21387;DHT22;10854;45.922;6.716;2023-12-20T09:54:33;5.90;99.90
21387;DHT22;10854;45.922;6.716;2023-12-20T09:57:02;6.00;99.90
21387;DHT22;10854;45.922;6.716;2023-12-20T09:59:30;6.10;99.90
21387;DHT22;10854;45.922;6.716;2023-12-20T10:02:02;6.10;99.90
21387;DHT22;10854;45.922;6.716;2023-12-20T10:04:32;6.20;99.90
21387;DHT22;10854;45.922;6.716;2023-12-20T10:07:04;6.30;99.90
21387;DHT22;10854;45.922;6.716;2023-12-20T10:09:34;6.40;99.90
21387;DHT22;10854;45.922;6.716;2023-12-20T10:12:02;6.50;99.90
21387;DHT22;10854;45.922;6.716;2023-12-20T10:14:33;6.70;99.90
21387;DHT22;10854;45.922;6.716;2023-12-20T10:17:05;6.90;99.90
21387;DHT22;10854;45.922;6.716;2023-12-20T10:19:34;7.10;99.90
21387;DHT22;10854;45.922;6.716;2023-12-20T10:22:04;7.10;99.90
21387;DHT22;10854;45.922;6.716;2023-12-20T10:24:33;7.20;99.90
21387;DHT22;10854;45.922;6.716;2023-12-20T10:27:05;7.40;99.90
21387;DHT22;10854;45.922;6.716;2023-12-20T10:29:37;7.40;99.90
21387;DHT22;10854;45.922;6.716;2023-12-20T10:32:27;7.50;99.90
21387;DHT22;10854;45.922;6.716;2023-12-20T10:34:55;7.60;99.90
21387;DHT22;10854;45.922;6.716;2023-12-20T10:37:24;7.70;99.90
21387;DHT22;10854;45.922;6.716;2023-12-20T10:39:54;7.80;99.90
21387;DHT22;10854;45.922;6.716;2023-12-20T10:42:27;7.90;99.90
21387;DHT22;10854;45.922;6.716;2023-12-20T10:44:55;8.10;99.90
21387;DHT22;10854;45.922;6.716;2023-12-20T10:47:25;8.30;99.90
21387;DHT22;10854;45.922;6.716;2023-12-20T10:49:55;8.50;99.90
21387;DHT22;10854;45.922;6.716;2023-12-20T10:52:24;8.60;99.90
21387;DHT22;10854;45.922;6.716;2023-12-20T10:54:53;8.60;99.90
21387;DHT22;10854;45.922;6.716;2023-12-20T10:57:22;8.70;99.90
21387;DHT22;10854;45.922;6.716;2023-12-20T10:59:54;8.80;99.90
21387;DHT22;10854;45.922;6.716;2023-12-20T11:02:22;8.90;99.90
21387;DHT22;10854;45.922;6.716;2023-12-20T11:07:57;9.00;99.90
21387;DHT22;10854;45.922;6.716;2023-12-20T11:10:30;9.00;99.90
21387;DHT22;10854;45.922;6.716;2023-12-20T11:13:10;9.00;99.90
21387;DHT22;10854;45.922;6.716;2023-12-20T11:15:40;8.90;99.90
21387;DHT22;10854;45.922;6.716;2023-12-20T11:18:09;8.90;99.90
21387;DHT22;10854;45.922;6.716;2023-12-20T11:20:39;8.70;99.90
21387;DHT22;10854;45.922;6.716;2023-12-20T11:23:09;8.70;99.90
21387;DHT22;10854;45.922;6.716;2023-12-20T11:25:55;8.60;99.90
21387;DHT22;10854;45.922;6.716;2023-12-20T11:28:27;8.50;99.90
21387;DHT22;10854;45.922;6.716;2023-12-20T11:30:56;8.50;99.90
21387;DHT22;10854;45.922;6.716;2023-12-20T11:33:37;8.40;99.80
21387;DHT22;10854;45.922;6.716;2023-12-20T11:36:18;8.40;99.60
21387;DHT22;10854;45.922;6.716;2023-12-20T11:38:57;8.40;99.40
21387;DHT22;10854;45.922;6.716;2023-12-20T11:41:26;8.20;99.50
21387;DHT22;10854;45.922;6.716;2023-12-20T11:43:56;8.20;99.70
21387;DHT22;10854;45.922;6.716;2023-12-20T11:46:24;8.10;99.80
21387;DHT22;10854;45.922;6.716;2023-12-20T11:48:54;8.20;99.90
21387;DHT22;10854;45.922;6.716;2023-12-20T11:51:23;8.20;99.90
21387;DHT22;10854;45.922;6.716;2023-12-20T11:53:52;8.20;99.90
21387;DHT22;10854;45.922;6.716;2023-12-20T11:56:21;8.20;99.90
21387;DHT22;10854;45.922;6.716;2023-12-20T11:58:49;8.20;99.90
21387;DHT22;10854;45.922;6.716;2023-12-20T12:01:20;8.20;99.90
21387;DHT22;10854;45.922;6.716;2023-12-20T12:03:48;8.20;99.90
21387;DHT22;10854;45.922;6.716;2023-12-20T12:06:31;8.20;99.90
21387;DHT22;10854;45.922;6.716;2023-12-20T12:08:59;8.20;99.90
21387;DHT22;10854;45.922;6.716;2023-12-20T12:11:28;8.10;99.90
21387;DHT22;10854;45.922;6.716;2023-12-20T12:13:56;8.20;99.90
21387;DHT22;10854;45.922;6.716;2023-12-20T12:16:25;8.20;99.90
21387;DHT22;10854;45.922;6.716;2023-12-20T12:18:57;8.30;99.90
21387;DHT22;10854;45.922;6.716;2023-12-20T12:21:26;8.40;99.90
21387;DHT22;10854;45.922;6.716;2023-12-20T12:24:08;8.40;99.90
21387;DHT22;10854;45.922;6.716;2023-12-20T12:26:38;8.40;99.70
21387;DHT22;10854;45.922;6.716;2023-12-20T12:29:09;8.40;99.90
21387;DHT22;10854;45.922;6.716;2023-12-20T12:31:39;8.30;99.90
21387;DHT22;10854;45.922;6.716;2023-12-20T12:34:07;8.40;99.90
21387;DHT22;10854;45.922;6.716;2023-12-20T12:36:37;8.50;99.90
21387;DHT22;10854;45.922;6.716;2023-12-20T12:39:05;8.50;99.90
21387;DHT22;10854;45.922;6.716;2023-12-20T12:41:34;8.50;99.90
21387;DHT22;10854;45.922;6.716;2023-12-20T12:44:02;8.60;99.90
21387;DHT22;10854;45.922;6.716;2023-12-20T12:46:34;8.80;99.90
21387;DHT22;10854;45.922;6.716;2023-12-20T12:49:02;8.90;99.70
21387;DHT22;10854;45.922;6.716;2023-12-20T12:51:32;8.90;98.90
21387;DHT22;10854;45.922;6.716;2023-12-20T12:54:00;8.80;98.70
21387;DHT22;10854;45.922;6.716;2023-12-20T12:56:29;8.80;99.10
21387;DHT22;10854;45.922;6.716;2023-12-20T12:58:57;8.80;99.10
21387;DHT22;10854;45.922;6.716;2023-12-20T13:01:26;8.90;98.80
21387;DHT22;10854;45.922;6.716;2023-12-20T13:03:54;8.90;98.50
21387;DHT22;10854;45.922;6.716;2023-12-20T13:06:23;9.00;98.40
21387;DHT22;10854;45.922;6.716;2023-12-20T13:08:51;8.90;98.10
21387;DHT22;10854;45.922;6.716;2023-12-20T13:11:20;9.00;98.00
21387;DHT22;10854;45.922;6.716;2023-12-20T13:13:48;9.00;97.90
21387;DHT22;10854;45.922;6.716;2023-12-20T13:16:17;9.10;97.80
21387;DHT22;10854;45.922;6.716;2023-12-20T13:18:45;9.30;97.60
21387;DHT22;10854;45.922;6.716;2023-12-20T13:21:14;9.40;97.40
21387;DHT22;10854;45.922;6.716;2023-12-20T13:23:50;9.50;97.10
21387;DHT22;10854;45.922;6.716;2023-12-20T13:26:20;9.50;96.70
21387;DHT22;10854;45.922;6.716;2023-12-20T13:28:48;9.50;96.30
21387;DHT22;10854;45.922;6.716;2023-12-20T13:31:17;9.40;96.10
21387;DHT22;10854;45.922;6.716;2023-12-20T13:33:49;9.30;96.10
21387;DHT22;10854;45.922;6.716;2023-12-20T13:36:18;9.20;96.30
21387;DHT22;10854;45.922;6.716;2023-12-20T13:38:47;9.10;96.50
21387;DHT22;10854;45.922;6.716;2023-12-20T13:41:16;9.10;96.40
21387;DHT22;10854;45.922;6.716;2023-12-20T13:43:44;9.00;96.30
21387;DHT22;10854;45.922;6.716;2023-12-20T13:46:13;8.90;96.40
21387;DHT22;10854;45.922;6.716;2023-12-20T13:48:42;8.80;96.60
21387;DHT22;10854;45.922;6.716;2023-12-20T13:51:13;8.70;97.00
21387;DHT22;10854;45.922;6.716;2023-12-20T13:53:41;8.60;97.10
21387;DHT22;10854;45.922;6.716;2023-12-20T13:56:10;8.50;97.40
21387;DHT22;10854;45.922;6.716;2023-12-20T13:58:38;8.40;97.70
21387;DHT22;10854;45.922;6.716;2023-12-20T14:01:09;8.30;98.00
21387;DHT22;10854;45.922;6.716;2023-12-20T14:03:41;8.20;98.30
21387;DHT22;10854;45.922;6.716;2023-12-20T14:06:09;8.00;98.70
21387;DHT22;10854;45.922;6.716;2023-12-20T14:08:38;7.90;99.10
21387;DHT22;10854;45.922;6.716;2023-12-20T14:11:06;7.80;99.50
21387;DHT22;10854;45.922;6.716;2023-12-20T14:13:35;7.80;99.90
21387;DHT22;10854;45.922;6.716;2023-12-20T14:16:03;7.80;99.90
21387;DHT22;10854;45.922;6.716;2023-12-20T14:18:32;7.80;99.90
21387;DHT22;10854;45.922;6.716;2023-12-20T14:21:01;7.80;99.90
21387;DHT22;10854;45.922;6.716;2023-12-20T14:23:29;7.90;99.90
21387;DHT22;10854;45.922;6.716;2023-12-20T14:25:58;7.90;99.90
21387;DHT22;10854;45.922;6.716;2023-12-20T14:28:27;8.00;99.90
21387;DHT22;10854;45.922;6.716;2023-12-20T14:30:56;8.00;99.90
21387;DHT22;10854;45.922;6.716;2023-12-20T14:33:24;8.00;99.90
21387;DHT22;10854;45.922;6.716;2023-12-20T14:35:53;8.00;99.90
21387;DHT22;10854;45.922;6.716;2023-12-20T14:38:22;8.10;99.90
21387;DHT22;10854;45.922;6.716;2023-12-20T14:40:50;8.10;99.90
21387;DHT22;10854;45.922;6.716;2023-12-20T14:43:19;8.00;99.90
21387;DHT22;10854;45.922;6.716;2023-12-20T14:45:50;8.00;99.90
21387;DHT22;10854;45.922;6.716;2023-12-20T14:48:19;7.90;99.90
21387;DHT22;10854;45.922;6.716;2023-12-20T14:50:47;7.80;99.90
21387;DHT22;10854;45.922;6.716;2023-12-20T14:53:16;7.70;99.90
21387;DHT22;10854;45.922;6.716;2023-12-20T14:55:47;7.70;99.90
21387;DHT22;10854;45.922;6.716;2023-12-20T14:58:16;7.60;99.90
21387;DHT22;10854;45.922;6.716;2023-12-20T15:00:45;7.60;99.90
21387;DHT22;10854;45.922;6.716;2023-12-20T15:03:13;7.60;99.90
21387;DHT22;10854;45.922;6.716;2023-12-20T15:05:44;7.60;99.90
21387;DHT22;10854;45.922;6.716;2023-12-20T15:08:14;7.60;99.90
21387;DHT22;10854;45.922;6.716;2023-12-20T15:10:42;7.70;99.90
21387;DHT22;10854;45.922;6.716;2023-12-20T15:13:11;7.70;99.90
21387;DHT22;10854;45.922;6.716;2023-12-20T15:15:40;7.80;99.90
21387;DHT22;10854;45.922;6.716;2023-12-20T15:18:10;7.90;99.90
21387;DHT22;10854;45.922;6.716;2023-12-20T15:20:38;7.90;99.90
21387;DHT22;10854;45.922;6.716;2023-12-20T15:23:07;7.90;99.90
21387;DHT22;10854;45.922;6.716;2023-12-20T15:25:36;7.80;99.90
21387;DHT22;10854;45.922;6.716;2023-12-20T15:28:04;7.80;99.90
21387;DHT22;10854;45.922;6.716;2023-12-20T15:30:33;7.80;99.90
21387;DHT22;10854;45.922;6.716;2023-12-20T15:33:01;7.70;99.90
21387;DHT22;10854;45.922;6.716;2023-12-20T15:35:32;7.60;99.90
21387;DHT22;10854;45.922;6.716;2023-12-20T15:38:00;7.60;99.90
21387;DHT22;10854;45.922;6.716;2023-12-20T15:40:29;7.50;99.90
21387;DHT22;10854;45.922;6.716;2023-12-20T15:42:58;7.40;99.90
21387;DHT22;10854;45.922;6.716;2023-12-20T15:45:28;7.30;99.90
21387;DHT22;10854;45.922;6.716;2023-12-20T15:47:56;7.20;99.90
21387;DHT22;10854;45.922;6.716;2023-12-20T15:50:25;7.10;99.90
21387;DHT22;10854;45.922;6.716;2023-12-20T15:52:54;7.00;99.90
21387;DHT22;10854;45.922;6.716;2023-12-20T15:55:22;7.00;99.90
21387;DHT22;10854;45.922;6.716;2023-12-20T15:57:51;6.90;99.90
21387;DHT22;10854;45.922;6.716;2023-12-20T16:00:21;6.90;99.90